This is the latest recevied weather packets stored in our database for station/object IU7URP-13. If no packets are shown the sender has not sent any weather packets the latest 10 day(s).
| Time | Temp. | Humidity | Pressure | Rain* | Wind** | Luminosity | Snow |
|---|---|---|---|---|---|---|---|
| 1777691819 | 11.67° C | 63% | 1020.9 hPa | - | - | - | - |
| 1777690632 | 11.67° C | 71% | 1021 hPa | - | - | - | - |
| 1777689416 | 12.22° C | 66% | 1020.7 hPa | - | - | - | - |
| 1777688215 | 12.22° C | 70% | 1020.9 hPa | - | - | - | - |
| 1777687014 | 12.22° C | 72% | 1020.9 hPa | - | - | - | - |
| 1777685813 | 12.22° C | 77% | 1020.9 hPa | - | - | - | - |
| 1777684611 | 12.22° C | 72% | 1020.8 hPa | - | - | - | - |
| 1777683410 | 12.22° C | 77% | 1021 hPa | - | - | - | - |
| 1777682209 | 12.22° C | 75% | 1021.1 hPa | - | - | - | - |
| 1777681007 | 12.22° C | 82% | 1021.3 hPa | - | - | - | - |
| 1777679806 | 12.22° C | 99% | 1021.5 hPa | - | - | - | - |
| 1777678604 | 12.22° C | 99% | 1021.7 hPa | - | - | - | - |
| 1777677403 | 12.22° C | 99% | 1021.9 hPa | - | - | - | - |
| 1777676202 | 12.22° C | 99% | 1022 hPa | - | - | - | - |
| 1777675001 | 12.78° C | 99% | 1021.9 hPa | - | - | - | - |
| 1777673799 | 12.78° C | 99% | 1022 hPa | - | - | - | - |
| 1777672598 | 13.33° C | 99% | 1022.2 hPa | - | - | - | - |
| 1777671396 | 13.33° C | 99% | 1022 hPa | - | - | - | - |
| 1777670195 | 13.33° C | 99% | 1021.9 hPa | - | - | - | - |
| 1777668994 | 13.89° C | 99% | 1021.9 hPa | - | - | - | - |
| 1777667792 | 13.33° C | 99% | 1021.8 hPa | - | - | - | - |
| 1777666591 | 13.89° C | 99% | 1021.7 hPa | - | - | - | - |
| 1777665390 | 13.33° C | 99% | 1021.8 hPa | - | - | - | - |
| 1777664188 | 13.33° C | 99% | 1021.7 hPa | - | - | - | - |
| 1777662987 | 13.33° C | 99% | 1021.6 hPa | - | - | - | - |
* Rain since midnight (hover to see other rain measurements)
** Current wind speed in m/s (hover to see current wind gust speed)